| time (UTC) | temp F | wind direction | speed MPH | gust MPH | rain 1hr in | rain 24hr in | rain mn in | humidity % | barometer mb |
| 20260901012014 | 75 | 257 | 0.0 | 0.0 | 0.00 | 0.35 | 0.35 | 88 | 1017.9 |
| 20260901011507 | 75 | 257 | 0.0 | 0.0 | 0.00 | 0.35 | 0.35 | 88 | 1017.8 |
| 20260901011002 | 75 | 257 | 0.0 | 0.0 | 0.00 | 0.35 | 0.35 | 88 | 1017.8 |
| 20260901010455 | 75 | 257 | 0.0 | 0.0 | 0.00 | 0.35 | 0.35 | 88 | 1017.8 |
| 20260901005950 | 75 | 257 | 0.0 | 0.0 | 0.00 | 0.35 | 0.35 | 88 | 1017.8 |
| 20260901005444 | 75 | 257 | 0.0 | 0.0 | 0.00 | 0.35 | 0.35 | 88 | 1017.8 |
| 20260901004938 | 75 | 257 | 0.0 | 0.0 | 0.00 | 0.35 | 0.35 | 88 | 1017.8 |
| 20260901004432 | 75 | 257 | 0.0 | 0.0 | 0.00 | 0.35 | 0.35 | 88 | 1017.7 |
| 20260901003926 | 75 | 257 | 0.0 | 0.0 | 0.00 | 0.35 | 0.35 | 88 | 1017.6 |
| 20260901003419 | 75 | 257 | 0.0 | 0.0 | 0.00 | 0.35 | 0.35 | 88 | 1017.6 |
| 20260901002914 | 75 | 257 | 0.0 | 0.0 | 0.00 | 0.35 | 0.35 | 88 | 1017.7 |
| 20260901002408 | 75 | 257 | 0.0 | 1.0 | 0.00 | 0.35 | 0.35 | 88 | 1017.7 |
| 20260901001901 | 75 | 257 | 0.0 | 1.0 | 0.00 | 0.35 | 0.35 | 88 | 1017.7 |
| 20260901001356 | 75 | 173 | 0.0 | 1.0 | 0.00 | 0.35 | 0.35 | 88 | 1017.7 |
| 20260901000849 | 75 | 173 | 0.0 | 1.0 | 0.00 | 0.35 | 0.35 | 88 | 1017.6 |
| 20260901000344 | 75 | 163 | 0.0 | 0.0 | 0.00 | 0.35 | 0.35 | 88 | 1017.5 |
| 20260831235838 | 75 | 163 | 0.0 | 0.0 | 0.00 | 0.35 | 0.35 | 88 | 1017.4 |
| 20260831235332 | 75 | 163 | 0.0 | 0.0 | 0.00 | 0.35 | 0.35 | 88 | 1017.5 |
| 20260831235056 | 75 | 163 | 0.0 | 0.0 | 0.00 | 0.35 | 0.35 | 88 | 1017.4 |
| 20260831234320 | 75 | 163 | 0.0 | 0.0 | 0.00 | 0.35 | 0.35 | 88 | 1017.4 |
| 20260831234044 | 75 | 163 | 0.0 | 0.0 | 0.00 | 0.35 | 0.35 | 88 | 1017.4 |
| 20260831233540 | 75 | 163 | 0.0 | 0.0 | 0.00 | 0.35 | 0.35 | 88 | 1017.4 |
| 20260831232801 | 75 | 163 | 0.0 | 0.0 | 0.01 | 0.35 | 0.35 | 88 | 1017.4 |
| 20260831232256 | 75 | 163 | 0.0 | 3.0 | 0.01 | 0.35 | 0.35 | 88 | 1017.5 |
| 20260831231751 | 75 | 163 | 0.0 | 3.0 | 0.01 | 0.35 | 0.35 | 88 | 1017.4 |
| 20260831231515 | 75 | 153 | 0.0 | 2.0 | 0.01 | 0.35 | 0.35 | 88 | 1017.4 |
| 20260831230738 | 76 | 171 | 0.0 | 2.0 | 0.01 | 0.35 | 0.35 | 88 | 1017.4 |
| 20260831230232 | 75 | 171 | 0.0 | 2.0 | 0.02 | 0.35 | 0.35 | 88 | 1017.4 |
| 20260831225725 | 76 | 186 | 0.0 | 4.0 | 0.02 | 0.35 | 0.35 | 88 | 1017.5 |
| 20260831225220 | 75 | 188 | 1.0 | 4.0 | 0.02 | 0.35 | 0.35 | 88 | 1017.5 |
| 20260831224713 | 75 | 165 | 0.0 | 2.0 | 0.02 | 0.35 | 0.35 | 88 | 1017.5 |
| 20260831224208 | 75 | 186 | 0.0 | 2.0 | 0.07 | 0.35 | 0.35 | 88 | 1017.6 |
| 20260831223702 | 75 | 34 | 1.0 | 9.0 | 0.16 | 0.35 | 0.35 | 88 | 1017.6 |
| 20260831223426 | 75 | 292 | 2.0 | 9.0 | 0.23 | 0.35 | 0.35 | 88 | 1017.7 |
| 20260831222921 | 75 | 111 | 2.0 | 6.0 | 0.31 | 0.34 | 0.34 | 88 | 1017.6 |
| 20260831222144 | 75 | 97 | 1.0 | 5.0 | 0.33 | 0.34 | 0.34 | 88 | 1017.7 |
| 20260831221638 | 75 | 209 | 1.0 | 5.0 | 0.34 | 0.34 | 0.34 | 88 | 1017.8 |
| 20260831221132 | 74 | 196 | 2.0 | 4.0 | 0.34 | 0.34 | 0.34 | 88 | 1017.9 |
| 20260831220856 | 74 | 205 | 1.0 | 4.0 | 0.34 | 0.34 | 0.34 | 88 | 1017.9 |
| 20260831220120 | 74 | 198 | 0.0 | 0.0 | 0.33 | 0.33 | 0.33 | 88 | 1017.9 |
| 20260831215614 | 74 | 200 | 0.0 | 0.0 | 0.33 | 0.33 | 0.33 | 87 | 1017.8 |
| 20260831215108 | 74 | 209 | 0.0 | 0.0 | 0.33 | 0.33 | 0.33 | 87 | 1017.8 |
| 20260831214602 | 75 | 209 | 0.0 | 2.0 | 0.32 | 0.32 | 0.33 | 87 | 1018.0 |
| 20260831214056 | 75 | 189 | 0.0 | 2.0 | 0.26 | 0.26 | 0.26 | 85 | 1018.3 |
| 20260831213550 | 76 | 105 | 1.0 | 7.0 | 0.19 | 0.19 | 0.20 | 84 | 1018.5 |
| 20260831213044 | 77 | 103 | 1.0 | 7.0 | 0.09 | 0.09 | 0.11 | 83 | 1018.4 |
| 20260831212537 | 79 | 350 | 1.0 | 7.0 | 0.03 | 0.03 | 0.03 | 81 | 1018.5 |
| 20260831212032 | 81 | 181 | 1.0 | 6.0 | 0.01 | 0.01 | 0.01 | 78 | 1018.3 |
| 20260831211526 | 83 | 190 | 0.0 | 3.0 | 0.00 | 0.00 | 0.00 | 75 | 1018.0 |
| 20260831211020 | 83 | 325 | 0.0 | 1.0 | 0.00 | 0.00 | 0.00 | 77 | 1017.6 |
| 20260831210514 | 83 | 230 | 0.0 | 2.0 | 0.00 | 0.00 | 0.00 | 77 | 1017.2 |
| 20260831210008 | 83 | 78 | 1.0 | 4.0 | 0.00 | 0.00 | 0.00 | 76 | 1017.3 |
| 20260831205502 | 83 | 146 | 1.0 | 6.0 | 0.00 | 0.00 | 0.00 | 76 | 1017.2 |
| 20260831204956 | 83 | 92 | 1.0 | 6.0 | 0.00 | 0.00 | 0.00 | 76 | 1017.4 |
| 20260831204450 | 82 | 192 | 2.0 | 5.0 | 0.00 | 0.00 | 0.00 | 77 | 1017.3 |
| 20260831203943 | 82 | 169 | 2.0 | 5.0 | 0.00 | 0.00 | 0.00 | 76 | 1017.1 |
| 20260831203438 | 82 | 180 | 1.0 | 5.0 | 0.00 | 0.00 | 0.00 | 77 | 1017.3 |
| 20260831202932 | 82 | 161 | 1.0 | 4.0 | 0.00 | 0.00 | 0.00 | 75 | 1017.5 |
| 20260831202426 | 83 | 267 | 2.0 | 6.0 | 0.00 | 0.00 | 0.00 | 73 | 1017.5 |
| 20260831201920 | 84 | 159 | 2.0 | 6.0 | 0.00 | 0.00 | 0.00 | 72 | 1017.4 |
| 20260831201413 | 85 | 84 | 3.0 | 8.0 | 0.00 | 0.00 | 0.00 | 70 | 1017.4 |
| 20260831200908 | 85 | 123 | 3.0 | 8.0 | 0.00 | 0.00 | 0.00 | 70 | 1017.4 |
| 20260831200402 | 86 | 107 | 2.0 | 8.0 | 0.00 | 0.00 | 0.00 | 71 | 1017.3 |
| 20260831195855 | 87 | 355 | 3.0 | 9.0 | 0.00 | 0.00 | 0.00 | 69 | 1017.2 |
| 20260831195350 | 89 | 147 | 3.0 | 9.0 | 0.00 | 0.00 | 0.00 | 66 | 1017.2 |
| 20260831194847 | 89 | 161 | 3.0 | 12.0 | 0.00 | 0.00 | 0.00 | 64 | 1017.1 |
| 20260831194840 | 89 | 186 | 3.0 | 12.0 | 0.00 | 0.00 | 0.00 | 63 | 1017.2 |
| 20260831193832 | 90 | 169 | 3.0 | 8.0 | 0.00 | 0.00 | 0.00 | 60 | 1017.2 |
| 20260831193325 | 89 | 167 | 2.0 | 8.0 | 0.00 | 0.00 | 0.00 | 64 | 1017.2 |
| 20260831192820 | 89 | 162 | 1.0 | 5.0 | 0.00 | 0.00 | 0.00 | 66 | 1017.3 |
| 20260831192314 | 88 | 92 | 1.0 | 5.0 | 0.00 | 0.00 | 0.00 | 66 | 1017.3 |
| 20260831191808 | 87 | 215 | 1.0 | 6.0 | 0.00 | 0.00 | 0.00 | 68 | 1017.4 |
| 20260831191302 | 87 | 178 | 2.0 | 6.0 | 0.00 | 0.00 | 0.00 | 68 | 1017.4 |
| 20260831190756 | 87 | 83 | 2.0 | 8.0 | 0.00 | 0.00 | 0.00 | 68 | 1017.4 |
| 20260831190250 | 88 | 136 | 3.0 | 8.0 | 0.00 | 0.00 | 0.00 | 65 | 1017.5 |
| 20260831185744 | 87 | 206 | 3.0 | 9.0 | 0.00 | 0.00 | 0.00 | 65 | 1017.6 |
| 20260831185238 | 88 | 184 | 3.0 | 9.0 | 0.00 | 0.00 | 0.00 | 64 | 1017.6 |
| 20260831184732 | 88 | 179 | 3.0 | 8.0 | 0.00 | 0.00 | 0.00 | 63 | 1017.5 |
| 20260831184225 | 89 | 171 | 4.0 | 11.0 | 0.00 | 0.00 | 0.00 | 63 | 1017.6 |
| 20260831183720 | 89 | 165 | 3.0 | 11.0 | 0.00 | 0.00 | 0.00 | 62 | 1017.7 |
| 20260831183226 | 89 | 180 | 2.0 | 8.0 | 0.00 | 0.00 | 0.00 | 66 | 1017.8 |
| 20260831182707 | 88 | 65 | 2.0 | 7.0 | 0.00 | 0.00 | 0.00 | 67 | 1017.8 |
| 20260831182202 | 88 | 181 | 2.0 | 7.0 | 0.00 | 0.00 | 0.00 | 64 | 1017.8 |
| 20260831181656 | 89 | 118 | 2.0 | 6.0 | 0.00 | 0.00 | 0.00 | 66 | 1017.9 |
| 20260831181149 | 88 | 207 | 2.0 | 7.0 | 0.00 | 0.00 | 0.00 | 67 | 1017.9 |
| 20260831180644 | 87 | 98 | 2.0 | 7.0 | 0.00 | 0.00 | 0.00 | 69 | 1017.9 |
| 20260831180409 | 87 | 182 | 2.0 | 6.0 | 0.00 | 0.00 | 0.00 | 68 | 1018.0 |
| 20260831175631 | 88 | 76 | 3.0 | 9.0 | 0.00 | 0.00 | 0.00 | 66 | 1018.1 |
| 20260831175126 | 87 | 180 | 2.0 | 9.0 | 0.00 | 0.00 | 0.00 | 68 | 1018.1 |
| 20260831174620 | 87 | 154 | 2.0 | 7.0 | 0.00 | 0.00 | 0.00 | 69 | 1018.1 |
| 20260831174345 | 87 | 90 | 2.0 | 8.0 | 0.00 | 0.00 | 0.00 | 69 | 1018.1 |
| 20260831173608 | 87 | 156 | 2.0 | 8.0 | 0.00 | 0.00 | 0.00 | 67 | 1018.1 |
| 20260831173102 | 88 | 185 | 1.0 | 5.0 | 0.00 | 0.00 | 0.00 | 66 | 1018.1 |
| 20260831172826 | 88 | 182 | 1.0 | 4.0 | 0.00 | 0.00 | 0.00 | 64 | 1018.1 |
| 20260831172050 | 89 | 5 | 1.0 | 4.0 | 0.00 | 0.00 | 0.00 | 56 | 1018.1 |
| 20260831171544 | 90 | 56 | 1.0 | 4.0 | 0.00 | 0.00 | 0.00 | 53 | 1018.1 |
| 20260831171038 | 90 | 169 | 1.0 | 2.0 | 0.00 | 0.00 | 0.00 | 57 | 1018.1 |
| 20260831170532 | 89 | 163 | 1.0 | 3.0 | 0.00 | 0.00 | 0.00 | 54 | 1018.1 |
| 20260831170026 | 90 | 61 | 1.0 | 3.0 | 0.00 | 0.00 | 0.00 | 51 | 1018.2 |
| 20260831165520 | 92 | 14 | 1.0 | 5.0 | 0.00 | 0.00 | 0.00 | 52 | 1018.3 |
| 20260831165013 | 91 | 148 | 1.0 | 5.0 | 0.00 | 0.00 | 0.00 | 57 | 1018.3 |
| 20260831164507 | 91 | 190 | 1.0 | 4.0 | 0.00 | 0.00 | 0.00 | 51 | 1018.3 |
| 20260831164002 | 91 | 42 | 1.0 | 4.0 | 0.00 | 0.00 | 0.00 | 49 | 1018.4 |
| 20260831163455 | 92 | 338 | 0.0 | 2.0 | 0.00 | 0.00 | 0.00 | 57 | 1018.6 |
| 20260831162950 | 91 | 138 | 1.0 | 3.0 | 0.00 | 0.00 | 0.00 | 54 | 1018.6 |
| 20260831162444 | 90 | 119 | 1.0 | 4.0 | 0.00 | 0.00 | 0.00 | 53 | 1018.7 |
| 20260831161938 | 89 | 163 | 1.0 | 4.0 | 0.00 | 0.00 | 0.00 | 55 | 1018.7 |
| 20260831161431 | 89 | 157 | 1.0 | 3.0 | 0.00 | 0.00 | 0.00 | 58 | 1018.8 |
| 20260831160926 | 90 | 167 | 0.0 | 3.0 | 0.00 | 0.00 | 0.00 | 60 | 1018.8 |
| 20260831160420 | 89 | 221 | 1.0 | 3.0 | 0.00 | 0.00 | 0.00 | 64 | 1019.0 |
| 20260831155914 | 89 | 95 | 1.0 | 3.0 | 0.00 | 0.00 | 0.00 | 59 | 1018.9 |
| 20260831155408 | 89 | 35 | 1.0 | 4.0 | 0.00 | 0.00 | 0.00 | 54 | 1019.0 |
| 20260831154902 | 89 | 71 | 1.0 | 5.0 | 0.00 | 0.00 | 0.00 | 63 | 1019.0 |
| 20260831154355 | 89 | 350 | 1.0 | 5.0 | 0.00 | 0.00 | 0.00 | 62 | 1019.0 |
| 20260831154121 | 89 | 210 | 1.0 | 4.0 | 0.00 | 0.00 | 0.00 | 59 | 1019.0 |
| 20260831153344 | 88 | 343 | 1.0 | 4.0 | 0.00 | 0.00 | 0.00 | 62 | 1019.1 |
| 20260831152838 | 88 | 67 | 1.0 | 3.0 | 0.00 | 0.00 | 0.00 | 64 | 1019.0 |
| 20260831152332 | 88 | 101 | 1.0 | 3.0 | 0.00 | 0.00 | 0.00 | 64 | 1019.1 |
| 20260831151826 | 87 | 152 | 1.0 | 2.0 | 0.00 | 0.00 | 0.00 | 66 | 1019.1 |
| 20260831151551 | 87 | 136 | 1.0 | 3.0 | 0.00 | 0.00 | 0.00 | 69 | 1019.0 |
| 20260831150814 | 87 | 230 | 1.0 | 4.0 | 0.00 | 0.00 | 0.00 | 68 | 1019.0 |
| 20260831150308 | 87 | 19 | 1.0 | 4.0 | 0.00 | 0.00 | 0.00 | 71 | 1019.0 |
| 20260831145801 | 86 | 163 | 0.0 | 2.0 | 0.00 | 0.00 | 0.00 | 68 | 1019.0 |
| 20260831145256 | 87 | 105 | 0.0 | 4.0 | 0.00 | 0.00 | 0.00 | 70 | 1019.0 |
| 20260831144750 | 86 | 324 | 1.0 | 4.0 | 0.00 | 0.00 | 0.00 | 71 | 1019.0 |
| 20260831144243 | 86 | 43 | 1.0 | 4.0 | 0.00 | 0.00 | 0.00 | 70 | 1019.0 |
| 20260831144009 | 86 | 5 | 1.0 | 4.0 | 0.00 | 0.00 | 0.00 | 70 | 1019.1 |
| 20260831143232 | 86 | 121 | 1.0 | 3.0 | 0.00 | 0.00 | 0.00 | 71 | 1019.1 |
| 20260831142726 | 85 | 301 | 1.0 | 3.0 | 0.00 | 0.00 | 0.00 | 72 | 1019.1 |
| 20260831142220 | 85 | 5 | 1.0 | 4.0 | 0.00 | 0.00 | 0.00 | 76 | 1019.1 |
| 20260831141726 | 85 | 0 | 1.0 | 4.0 | 0.00 | 0.00 | 0.00 | 72 | 1019.1 |
| 20260831141208 | 85 | 88 | 1.0 | 3.0 | 0.00 | 0.00 | 0.00 | 73 | 1019.0 |
| 20260831140933 | 85 | 57 | 1.0 | 2.0 | 0.00 | 0.00 | 0.00 | 75 | 1019.0 |
| 20260831140156 | 84 | 51 | 1.0 | 4.0 | 0.00 | 0.00 | 0.00 | 73 | 1019.0 |
| 20260831135650 | 84 | 315 | 1.0 | 3.0 | 0.00 | 0.00 | 0.00 | 74 | 1019.0 |
| 20260831135143 | 83 | 5 | 1.0 | 5.0 | 0.00 | 0.00 | 0.00 | 75 | 1018.9 |
| 20260831134909 | 83 | 26 | 0.0 | 3.0 | 0.00 | 0.00 | 0.00 | 77 | 1019.0 |
| 20260831134132 | 82 | 146 | 0.0 | 2.0 | 0.00 | 0.00 | 0.00 | 79 | 1018.9 |
| 20260831133626 | 81 | 51 | 0.0 | 1.0 | 0.00 | 0.00 | 0.00 | 83 | 1018.9 |
| 20260831133119 | 77 | 271 | 0.0 | 2.0 | 0.00 | 0.00 | 0.00 | 90 | 1018.8 |
| 20260831132614 | 77 | 271 | 0.0 | 2.0 | 0.00 | 0.00 | 0.00 | 90 | 1018.7 |
| 20260831132108 | 76 | 63 | 0.0 | 2.0 | 0.00 | 0.00 | 0.00 | 90 | 1018.7 |
| 20260831131614 | 76 | 213 | 0.0 | 2.0 | 0.00 | 0.00 | 0.00 | 90 | 1018.7 |
| 20260831131056 | 76 | 332 | 0.0 | 2.0 | 0.00 | 0.00 | 0.00 | 90 | 1018.6 |
| 20260831130550 | 76 | 214 | 0.0 | 2.0 | 0.00 | 0.00 | 0.00 | 90 | 1018.6 |
| 20260831130044 | 76 | 5 | 0.0 | 2.0 | 0.00 | 0.00 | 0.00 | 90 | 1018.6 |
| 20260831125538 | 75 | 335 | 0.0 | 1.0 | 0.00 | 0.00 | 0.00 | 90 | 1018.6 |
| 20260831125032 | 75 | 40 | 0.0 | 1.0 | 0.00 | 0.00 | 0.00 | 90 | 1018.7 |
| 20260831124526 | 75 | 55 | 0.0 | 0.0 | 0.00 | 0.00 | 0.00 | 90 | 1018.7 |
| 20260831124019 | 75 | 55 | 0.0 | 0.0 | 0.00 | 0.00 | 0.00 | 90 | 1018.8 |
| 20260831123514 | 74 | 55 | 0.0 | 0.0 | 0.00 | 0.00 | 0.00 | 90 | 1018.8 |
| 20260831123008 | 74 | 55 | 0.0 | 0.0 | 0.00 | 0.00 | 0.00 | 90 | 1018.8 |
| 20260831122501 | 74 | 55 | 0.0 | 0.0 | 0.00 | 0.00 | 0.00 | 90 | 1018.9 |
| 20260831121956 | 74 | 55 | 0.0 | 0.0 | 0.00 | 0.00 | 0.00 | 90 | 1018.9 |
| 20260831121450 | 73 | 55 | 0.0 | 0.0 | 0.00 | 0.00 | 0.00 | 90 | 1018.9 |
| 20260831120944 | 73 | 55 | 0.0 | 0.0 | 0.00 | 0.00 | 0.00 | 89 | 1018.8 |
| 20260831120437 | 73 | 55 | 0.0 | 0.0 | 0.00 | 0.00 | 0.00 | 89 | 1018.8 |
| 20260831115932 | 73 | 55 | 0.0 | 0.0 | 0.00 | 0.00 | 0.00 | 89 | 1018.9 |
| 20260831115657 | 72 | 55 | 0.0 | 0.0 | 0.00 | 0.00 | 0.00 | 89 | 1018.9 |
| 20260831115150 | 72 | 55 | 0.0 | 0.0 | 0.00 | 0.00 | 0.00 | 89 | 1018.9 |
| 20260831114414 | 72 | 55 | 0.0 | 0.0 | 0.00 | 0.00 | 0.00 | 89 | 1018.9 |
| 20260831113908 | 72 | 80 | 0.0 | 0.0 | 0.00 | 0.00 | 0.00 | 88 | 1018.9 |
| 20260831113401 | 71 | 80 | 0.0 | 0.0 | 0.00 | 0.00 | 0.00 | 88 | 1018.9 |
| 20260831112856 | 71 | 80 | 0.0 | 0.0 | 0.00 | 0.00 | 0.00 | 88 | 1019.0 |
| 20260831112350 | 71 | 80 | 0.0 | 0.0 | 0.00 | 0.00 | 0.00 | 88 | 1019.0 |
| 20260831111844 | 71 | 80 | 0.0 | 0.0 | 0.00 | 0.00 | 0.00 | 88 | 1019.0 |
| 20260831111338 | 71 | 80 | 0.0 | 0.0 | 0.00 | 0.00 | 0.00 | 88 | 1019.0 |
| 20260831110833 | 71 | 80 | 0.0 | 0.0 | 0.00 | 0.00 | 0.00 | 88 | 1019.0 |
| 20260831110326 | 71 | 80 | 0.0 | 0.0 | 0.00 | 0.00 | 0.00 | 88 | 1018.9 |
| 20260831105820 | 71 | 80 | 0.0 | 0.0 | 0.00 | 0.00 | 0.00 | 87 | 1018.9 |
| 20260831105314 | 71 | 80 | 0.0 | 0.0 | 0.00 | 0.00 | 0.00 | 87 | 1018.9 |
| 20260831104808 | 71 | 80 | 0.0 | 0.0 | 0.00 | 0.00 | 0.00 | 87 | 1018.8 |
| 20260831104301 | 71 | 80 | 0.0 | 0.0 | 0.00 | 0.00 | 0.00 | 87 | 1018.8 |
| 20260831103755 | 71 | 80 | 0.0 | 0.0 | 0.00 | 0.00 | 0.00 | 87 | 1018.7 |
| 20260831103250 | 71 | 80 | 0.0 | 0.0 | 0.00 | 0.00 | 0.00 | 87 | 1018.8 |
| 20260831102744 | 71 | 80 | 0.0 | 0.0 | 0.00 | 0.00 | 0.00 | 87 | 1018.7 |
| 20260831102238 | 71 | 80 | 0.0 | 0.0 | 0.00 | 0.00 | 0.00 | 87 | 1018.7 |
| 20260831101732 | 71 | 80 | 0.0 | 0.0 | 0.00 | 0.00 | 0.00 | 87 | 1018.6 |
| 20260831101226 | 71 | 80 | 0.0 | 0.0 | 0.00 | 0.00 | 0.00 | 87 | 1018.6 |
| 20260831100720 | 71 | 80 | 0.0 | 0.0 | 0.00 | 0.00 | 0.00 | 87 | 1018.6 |
| 20260831100214 | 71 | 80 | 0.0 | 0.0 | 0.00 | 0.00 | 0.00 | 87 | 1018.6 |
| 20260831095708 | 71 | 80 | 0.0 | 0.0 | 0.00 | 0.00 | 0.00 | 87 | 1018.5 |
| 20260831095432 | 71 | 80 | 0.0 | 0.0 | 0.00 | 0.00 | 0.00 | 87 | 1018.5 |
| 20260831094656 | 71 | 80 | 0.0 | 0.0 | 0.00 | 0.00 | 0.00 | 87 | 1018.5 |
| 20260831094150 | 71 | 80 | 0.0 | 0.0 | 0.00 | 0.00 | 0.00 | 87 | 1018.5 |
| 20260831093915 | 71 | 80 | 0.0 | 0.0 | 0.00 | 0.00 | 0.00 | 87 | 1018.4 |
| 20260831093410 | 71 | 80 | 0.0 | 0.0 | 0.00 | 0.00 | 0.00 | 87 | 1018.3 |
| 20260831092903 | 71 | 80 | 0.0 | 0.0 | 0.00 | 0.00 | 0.00 | 87 | 1018.2 |
| 20260831092126 | 72 | 80 | 0.0 | 0.0 | 0.00 | 0.00 | 0.00 | 87 | 1018.2 |
| 20260831091620 | 72 | 80 | 0.0 | 0.0 | 0.00 | 0.00 | 0.00 | 87 | 1018.2 |
| 20260831091114 | 72 | 80 | 0.0 | 0.0 | 0.00 | 0.00 | 0.00 | 87 | 1018.2 |
| 20260831090608 | 72 | 80 | 0.0 | 0.0 | 0.00 | 0.00 | 0.00 | 87 | 1018.1 |
| 20260831090105 | 72 | 80 | 0.0 | 0.0 | 0.00 | 0.00 | 0.00 | 87 | 1018.2 |
| 20260831085556 | 72 | 80 | 0.0 | 0.0 | 0.00 | 0.00 | 0.00 | 87 | 1018.2 |
| 20260831085320 | 72 | 80 | 0.0 | 0.0 | 0.00 | 0.00 | 0.00 | 87 | 1018.3 |
| 20260831084544 | 72 | 80 | 0.0 | 0.0 | 0.00 | 0.00 | 0.00 | 86 | 1018.4 |
| 20260831084038 | 72 | 80 | 0.0 | 0.0 | 0.00 | 0.00 | 0.00 | 86 | 1018.4 |
| 20260831083532 | 72 | 80 | 0.0 | 0.0 | 0.00 | 0.00 | 0.00 | 87 | 1018.5 |
| 20260831083258 | 72 | 80 | 0.0 | 0.0 | 0.00 | 0.00 | 0.00 | 87 | 1018.5 |
| 20260831082519 | 72 | 80 | 0.0 | 0.0 | 0.00 | 0.00 | 0.00 | 86 | 1018.5 |
| 20260831082014 | 72 | 80 | 0.0 | 0.0 | 0.00 | 0.00 | 0.00 | 87 | 1018.6 |
| 20260831081507 | 72 | 80 | 0.0 | 0.0 | 0.00 | 0.00 | 0.00 | 87 | 1018.7 |
| 20260831081233 | 72 | 175 | 0.0 | 0.0 | 0.00 | 0.00 | 0.00 | 87 | 1018.6 |
| 20260831080455 | 73 | 175 | 0.0 | 0.0 | 0.00 | 0.00 | 0.00 | 87 | 1018.6 |
| 20260831075950 | 73 | 175 | 0.0 | 0.0 | 0.00 | 0.00 | 0.00 | 87 | 1018.7 |
| 20260831075444 | 73 | 175 | 0.0 | 0.0 | 0.00 | 0.00 | 0.00 | 87 | 1018.7 |
| 20260831074937 | 73 | 175 | 0.0 | 0.0 | 0.00 | 0.00 | 0.00 | 87 | 1018.8 |
| 20260831074432 | 73 | 175 | 0.0 | 0.0 | 0.00 | 0.00 | 0.00 | 86 | 1018.8 |
| 20260831073926 | 73 | 175 | 0.0 | 0.0 | 0.00 | 0.00 | 0.00 | 86 | 1018.8 |
| 20260831073650 | 73 | 175 | 0.0 | 0.0 | 0.00 | 0.00 | 0.00 | 86 | 1018.8 |
| 20260831072914 | 73 | 175 | 0.0 | 0.0 | 0.00 | 0.00 | 0.00 | 86 | 1018.8 |
| 20260831072411 | 73 | 175 | 0.0 | 0.0 | 0.00 | 0.00 | 0.00 | 86 | 1018.8 |
| 20260831072404 | 73 | 175 | 0.0 | 1.0 | 0.00 | 0.00 | 0.00 | 87 | 1018.8 |
| 20260831071356 | 73 | 200 | 0.0 | 1.0 | 0.00 | 0.00 | 0.00 | 86 | 1018.8 |
| 20260831071120 | 73 | 175 | 0.0 | 0.0 | 0.00 | 0.00 | 0.00 | 86 | 1018.8 |
| 20260831070615 | 73 | 175 | 0.0 | 0.0 | 0.00 | 0.00 | 0.00 | 86 | 1018.8 |
| 20260831065838 | 73 | 175 | 0.0 | 0.0 | 0.00 | 0.00 | 0.00 | 86 | 1018.7 |
| 20260831065332 | 73 | 175 | 0.0 | 0.0 | 0.00 | 0.00 | 0.00 | 86 | 1018.7 |
| 20260831065058 | 73 | 175 | 0.0 | 0.0 | 0.00 | 0.00 | 0.00 | 86 | 1018.7 |
| 20260831064319 | 73 | 175 | 0.0 | 0.0 | 0.00 | 0.00 | 0.00 | 86 | 1018.8 |
| 20260831064045 | 73 | 175 | 0.0 | 0.0 | 0.00 | 0.00 | 0.00 | 85 | 1018.8 |
| 20260831063308 | 73 | 175 | 0.0 | 0.0 | 0.00 | 0.00 | 0.00 | 85 | 1018.7 |
| 20260831062802 | 73 | 175 | 0.0 | 0.0 | 0.00 | 0.00 | 0.00 | 85 | 1018.7 |
| 20260831062256 | 74 | 175 | 0.0 | 0.0 | 0.00 | 0.00 | 0.00 | 85 | 1018.7 |
| 20260831061750 | 74 | 175 | 0.0 | 0.0 | 0.00 | 0.00 | 0.00 | 85 | 1018.8 |
| 20260831061244 | 74 | 175 | 0.0 | 0.0 | 0.00 | 0.00 | 0.00 | 85 | 1018.8 |
| 20260831060750 | 74 | 175 | 0.0 | 0.0 | 0.00 | 0.00 | 0.00 | 85 | 1018.8 |
| 20260831060232 | 74 | 175 | 0.0 | 0.0 | 0.00 | 0.00 | 0.00 | 85 | 1018.9 |
| 20260831055726 | 74 | 175 | 0.0 | 0.0 | 0.00 | 0.00 | 0.00 | 85 | 1018.9 |
| 20260831055219 | 74 | 175 | 0.0 | 0.0 | 0.00 | 0.00 | 0.00 | 85 | 1019.0 |
| 20260831054714 | 74 | 175 | 0.0 | 0.0 | 0.00 | 0.00 | 0.00 | 85 | 1019.0 |
| 20260831054207 | 74 | 175 | 0.0 | 0.0 | 0.00 | 0.00 | 0.00 | 85 | 1019.0 |
| 20260831053702 | 74 | 175 | 0.0 | 0.0 | 0.00 | 0.00 | 0.00 | 85 | 1019.0 |
| 20260831053156 | 74 | 175 | 0.0 | 0.0 | 0.00 | 0.00 | 0.00 | 85 | 1019.0 |
| 20260831052649 | 74 | 175 | 0.0 | 0.0 | 0.00 | 0.00 | 0.00 | 85 | 1019.1 |
| 20260831052144 | 74 | 175 | 0.0 | 0.0 | 0.00 | 0.00 | 0.00 | 85 | 1019.0 |
| 20260831051909 | 74 | 175 | 0.0 | 0.0 | 0.00 | 0.00 | 0.00 | 85 | 1018.9 |
| 20260831051145 | 74 | 175 | 0.0 | 0.0 | 0.00 | 0.00 | 0.00 | 85 | 1018.9 |
| 20260831050625 | 74 | 175 | 0.0 | 1.0 | 0.00 | 0.00 | 0.00 | 85 | 1019.0 |
| 20260831050120 | 74 | 198 | 0.0 | 1.0 | 0.00 | 0.00 | 0.00 | 85 | 1018.9 |
| 20260831045614 | 74 | 171 | 0.0 | 0.0 | 0.00 | 0.00 | 0.00 | 84 | 1019.0 |
| 20260831045114 | 74 | 171 | 0.0 | 0.0 | 0.00 | 0.00 | 0.00 | 84 | 1019.0 |
| 20260831044610 | 74 | 171 | 0.0 | 0.0 | 0.00 | 0.00 | 0.00 | 83 | 1019.0 |
| 20260831044111 | 74 | 171 | 0.0 | 0.0 | 0.00 | 0.00 | 0.00 | 83 | 1019.0 |
| 20260831043612 | 75 | 171 | 0.0 | 0.0 | 0.00 | 0.00 | 0.00 | 83 | 1019.0 |
| 20260831043341 | 75 | 171 | 0.0 | 0.0 | 0.00 | 0.00 | 0.00 | 83 | 1019.0 |
| 20260831042607 | 75 | 171 | 0.0 | 0.0 | 0.00 | 0.00 | 0.00 | 83 | 1019.1 |
| 20260831042108 | 75 | 171 | 0.0 | 0.0 | 0.00 | 0.00 | 0.00 | 83 | 1019.0 |
| 20260831041607 | 75 | 171 | 0.0 | 0.0 | 0.00 | 0.00 | 0.00 | 83 | 1019.0 |
| 20260831041349 | 75 | 171 | 0.0 | 0.0 | 0.00 | 0.00 | 0.00 | 83 | 1018.9 |
| 20260831040604 | 75 | 171 | 0.0 | 0.0 | 0.00 | 0.00 | 0.00 | 83 | 1018.9 |
| 20260831040105 | 75 | 171 | 0.0 | 0.0 | 0.00 | 0.00 | 0.00 | 83 | 1018.8 |
| 20260831035603 | 76 | 171 | 0.0 | 0.0 | 0.00 | 0.00 | 0.00 | 83 | 1018.9 |
| 20260831035103 | 76 | 171 | 0.0 | 0.0 | 0.00 | 0.00 | 0.00 | 83 | 1019.0 |
| 20260831034602 | 76 | 171 | 0.0 | 0.0 | 0.00 | 0.00 | 0.00 | 83 | 1019.0 |
| 20260831034101 | 76 | 171 | 0.0 | 0.0 | 0.00 | 0.00 | 0.00 | 83 | 1019.1 |
| 20260831033832 | 76 | 171 | 0.0 | 0.0 | 0.00 | 0.00 | 0.00 | 83 | 1019.2 |
| 20260831033059 | 76 | 171 | 0.0 | 0.0 | 0.00 | 0.00 | 0.00 | 83 | 1019.3 |
| 20260831032557 | 76 | 171 | 0.0 | 0.0 | 0.00 | 0.00 | 0.00 | 82 | 1019.2 |
| 20260831032052 | 76 | 171 | 0.0 | 0.0 | 0.00 | 0.00 | 0.00 | 83 | 1019.3 |
| 20260831031552 | 76 | 171 | 0.0 | 0.0 | 0.00 | 0.00 | 0.00 | 83 | 1019.3 |
| 20260831031050 | 76 | 171 | 0.0 | 0.0 | 0.00 | 0.00 | 0.00 | 82 | 1019.4 |
| 20260831030547 | 76 | 171 | 0.0 | 0.0 | 0.00 | 0.00 | 0.00 | 83 | 1019.4 |
| 20260831030059 | 77 | 171 | 0.0 | 0.0 | 0.00 | 0.00 | 0.00 | 82 | 1019.5 |
| 20260831025814 | 77 | 171 | 0.0 | 0.0 | 0.00 | 0.00 | 0.00 | 82 | 1019.5 |
| 20260831025041 | 77 | 171 | 0.0 | 0.0 | 0.00 | 0.00 | 0.00 | 82 | 1019.5 |
| 20260831024542 | 77 | 171 | 0.0 | 0.0 | 0.00 | 0.00 | 0.00 | 81 | 1019.5 |
| 20260831024041 | 77 | 171 | 0.0 | 0.0 | 0.00 | 0.00 | 0.00 | 81 | 1019.5 |
| 20260831023541 | 77 | 171 | 0.0 | 0.0 | 0.00 | 0.00 | 0.00 | 81 | 1019.5 |
| 20260831023041 | 77 | 171 | 0.0 | 0.0 | 0.00 | 0.00 | 0.00 | 81 | 1019.5 |
| 20260831022813 | 78 | 171 | 0.0 | 0.0 | 0.00 | 0.00 | 0.00 | 81 | 1019.5 |
| 20260831022040 | 78 | 171 | 0.0 | 0.0 | 0.00 | 0.00 | 0.00 | 81 | 1019.6 |
| 20260831021538 | 78 | 171 | 0.0 | 0.0 | 0.00 | 0.00 | 0.00 | 81 | 1019.5 |
| 20260831021040 | 78 | 171 | 0.0 | 0.0 | 0.00 | 0.00 | 0.00 | 81 | 1019.5 |
| 20260831020553 | 78 | 171 | 0.0 | 0.0 | 0.00 | 0.00 | 0.00 | 81 | 1019.6 |
| 20260831020034 | 78 | 171 | 0.0 | 0.0 | 0.00 | 0.00 | 0.00 | 81 | 1019.5 |
| 20260831015758 | 78 | 171 | 0.0 | 0.0 | 0.00 | 0.00 | 0.00 | 81 | 1019.6 |
| 20260831015033 | 78 | 171 | 0.0 | 1.0 | 0.00 | 0.00 | 0.00 | 81 | 1019.5 |
| 20260831015027 | 78 | 171 | 0.0 | 0.0 | 0.00 | 0.00 | 0.00 | 81 | 1019.5 |
| 20260831014025 | 78 | 171 | 0.0 | 1.0 | 0.00 | 0.00 | 0.00 | 81 | 1019.4 |
| 20260831013525 | 78 | 171 | 0.0 | 1.0 | 0.00 | 0.00 | 0.00 | 81 | 1019.4 |
| 20260831013038 | 78 | 191 | 0.0 | 1.0 | 0.00 | 0.00 | 0.00 | 81 | 1019.5 |
| 20260831012526 | 79 | 172 | 0.0 | 4.0 | 0.00 | 0.00 | 0.00 | 81 | 1019.6 |